Fisher, Louisiana
Current Conditions -  °F | °C
As of 6:56 AM on Thursday 18 Dec 2014 (Local Time) from KAQV Reporting Station
Heavy Rain Heavy Rain  
Wind Chill: 50°   Ceiling: 1600
Heat Index: 50°   Visibility: 5mi
Dew Point: 45°   Wind: 0mph
Humidity: 83%   Direction: NA
Pressure: 30.11"   Gusts: NA
Location:  31.49°N, 93.47°W
Report Text: KAQV 181256Z AUTO 00000KT 5SM +RA OVC016 10/07 A3011 RMK AO2 RAB50 SLP197 P0003 T01000072
Loading
Personal Weather Stations






























Interactive Weather Map New forecast layout! Learn more

10-Day Weather Forecast

Advertisements
Track Severe Weather on mobile